Kahului, HI (96732)

5:53 AM HST on February 14, 2016 (GMT -1000)
Wailuku Kehalani | | Change Station
CLOSE
Current Station
Personal Weather Station
Location: Wailuku, HI
Elevation: 259 ft
Nearby Weather Stations

Elev 259 ft 20.87 °N, 156.50 °W | Updated 6 seconds ago

Mostly Cloudy
Mostly Cloudy
67.5 °F
Feels Like 67.5 °F
N
0.0
Wind Variable Wind from SSE
Gusts 0.0 mph

Today
High -- | Low -- °F
--% Chance of Precip.
Yesterday
High -- | Low -- °F
Precip. -- in
Pressure 30.03 in
Visibility 10.0 miles
Clouds Mostly Cloudy 4400 ft
Dew Point 63 °F
Humidity 86%
Rainfall 0.00 in
Snow Depth Not available.
6:56 AM 6:23 PM
Waxing Crescent, 43% visible
METAR PHOG 141454Z AUTO 15006KT 10SM BKN044 18/17 A3001 RMK AO2 SLP168 T01830167 55006 TSNO $
Pressure 30.03 in
Visibility 10.0 miles
Clouds Mostly Cloudy 4400 ft
Dew Point 63 °F
Humidity 86%
Rainfall 0.00 in
Snow Depth Not available.
6:56 AM 6:23 PM
Waxing Crescent, 43% visible
METAR PHOG 141454Z AUTO 15006KT 10SM BKN044 18/17 A3001 RMK AO2 SLP168 T01830167 55006 TSNO $

10-Day Weather Forecast

Almanac

Astronomy

Feb. 14, 2016 Rise Set
Actual Time
Civil Twilight
Nautical Twilight
Astronomical Twilight
Moon
Length of Visible Light
Length of Day
Tomorrow will be .
, % of the Moon is Illuminated

Today's Extremes

State Highs State Lows

Community

WunderPhotos

Upload Photos

1,892,802 photos uploaded!

WunderBlog® & News

Nearby

Air Quality

  Air Quality AQ Index Pollutant
Not available.

Snow Depth

Station Depth Elevation

Earthquake Activity

City Distance Mag. Time & Date
Minimum magnitude displayed is 2.5.

Coastal Water Temperatures

Place Temperature

Stations

Nearby Weather Stations

Station Location Temp. Windchill Dew Point Humidity Wind Precip. Elev Updated Type
                   

Watches & Warnings

There are currently no watches in effect.